| Date | Time | Temp. (oF) | Dew Point (oF) | Rel. Hum. (%) | Press. (in.) | Wind Dir. | Wind Speed (mph) | Hourly Rainfall (in.) |
|
|---|---|---|---|---|---|---|---|---|---|
| 1 | 05/01 | 00:00 | 47 | 45 | 95 | 30.23 | N | 0 | 0.00 |
| 2 | 04/30 | 23:00 | 49 | 44 | 84 | 30.21 | N | 0 | 0.00 |
| 3 | 04/30 | 22:00 | 52 | 44 | 75 | 30.20 | ESE | 0 | 0.00 |
| 4 | 04/30 | 21:00 | 56 | 42 | 61 | 30.17 | WSW | 2 | 0.00 |
| 5 | 04/30 | 20:00 | 61 | 40 | 47 | 30.14 | WSW | 3 | 0.00 |
| 6 | 04/30 | 19:00 | 64 | 39 | 41 | 30.11 | NNW | 1 | 0.00 |
| 7 | 04/30 | 18:00 | 64 | 40 | 42 | 30.12 | NNW | 6 | 0.00 |
| 8 | 04/30 | 17:00 | 64 | 40 | 42 | 30.12 | ENE | 7 | 0.00 |
| 9 | 04/30 | 16:00 | 63 | 41 | 45 | 30.14 | WNW | 8 | 0.00 |
| 10 | 04/30 | 15:00 | 62 | 43 | 50 | 30.16 | NNW | 2 | 0.00 |
| 11 | 04/30 | 14:00 | 58 | 39 | 51 | 30.16 | NNE | 11 | 0.00 |
| 12 | 04/30 | 13:00 | 57 | 40 | 55 | 30.17 | N | 7 | 0.00 |
| 13 | 04/30 | 12:00 | 54 | 38 | 55 | 30.18 | NNW | 6 | 0.00 |
| 14 | 04/30 | 11:00 | 52 | 38 | 59 | 30.17 | NNE | 6 | 0.00 |
| 15 | 04/30 | 10:00 | 51 | 39 | 64 | 30.16 | NW | 5 | 0.00 |
| 16 | 04/30 | 09:00 | 49 | 38 | 67 | 30.14 | NNE | 9 | 0.00 |
| 17 | 04/30 | 08:00 | 47 | 38 | 73 | 30.13 | NNE | 5 | 0.00 |
| 18 | 04/30 | 07:00 | 46 | 38 | 75 | 30.12 | NW | 3 | 0.00 |
| 19 | 04/30 | 06:00 | 46 | 38 | 75 | 30.09 | N | 5 | 0.00 |
| 20 | 04/30 | 05:00 | 46 | 38 | 74 | 30.07 | NNW | 5 | 0.00 |
| 21 | 04/30 | 04:00 | 47 | 39 | 74 | 30.05 | NNW | 7 | 0.00 |
| 22 | 04/30 | 03:00 | 48 | 38 | 69 | 30.03 | NNW | 2 | 0.00 |
| 23 | 04/30 | 02:00 | 49 | 38 | 68 | 30.03 | NNW | 2 | 0.00 |
| 24 | 04/30 | 01:00 | 49 | 37 | 65 | 30.03 | NNW | 6 | 0.00 |